sensor_id;sensor_type;location;lat;lon;timestamp;temperature;humidity
8539;DHT22;4307;53.868;11.680;2023-10-31T00:01:44;12.40;99.90
8539;DHT22;4307;53.868;11.680;2023-10-31T00:04:11;12.50;99.90
8539;DHT22;4307;53.868;11.680;2023-10-31T00:06:38;12.40;99.90
8539;DHT22;4307;53.868;11.680;2023-10-31T00:09:05;12.30;99.90
8539;DHT22;4307;53.868;11.680;2023-10-31T00:11:32;12.30;99.90
8539;DHT22;4307;53.868;11.680;2023-10-31T00:13:59;12.20;99.90
8539;DHT22;4307;53.868;11.680;2023-10-31T00:16:25;12.20;99.90
8539;DHT22;4307;53.868;11.680;2023-10-31T00:18:52;12.20;99.90
8539;DHT22;4307;53.868;11.680;2023-10-31T00:21:19;12.10;99.90
8539;DHT22;4307;53.868;11.680;2023-10-31T00:23:46;12.20;99.90
8539;DHT22;4307;53.868;11.680;2023-10-31T00:26:14;12.20;99.90
8539;DHT22;4307;53.868;11.680;2023-10-31T00:28:41;12.20;99.90
8539;DHT22;4307;53.868;11.680;2023-10-31T00:31:08;12.20;99.90
8539;DHT22;4307;53.868;11.680;2023-10-31T00:33:36;12.20;99.90
8539;DHT22;4307;53.868;11.680;2023-10-31T00:36:04;12.20;99.90
8539;DHT22;4307;53.868;11.680;2023-10-31T00:38:30;12.10;99.90
8539;DHT22;4307;53.868;11.680;2023-10-31T00:40:57;12.10;99.90
8539;DHT22;4307;53.868;11.680;2023-10-31T00:43:25;12.20;99.90
8539;DHT22;4307;53.868;11.680;2023-10-31T00:45:51;12.10;99.90
8539;DHT22;4307;53.868;11.680;2023-10-31T00:48:19;12.10;99.90
8539;DHT22;4307;53.868;11.680;2023-10-31T00:50:46;12.10;99.90
8539;DHT22;4307;53.868;11.680;2023-10-31T00:53:12;12.00;99.90
8539;DHT22;4307;53.868;11.680;2023-10-31T00:55:40;12.00;99.90
8539;DHT22;4307;53.868;11.680;2023-10-31T00:58:06;12.00;99.90
8539;DHT22;4307;53.868;11.680;2023-10-31T01:00:34;12.00;99.90
8539;DHT22;4307;53.868;11.680;2023-10-31T01:03:02;12.00;99.90
8539;DHT22;4307;53.868;11.680;2023-10-31T01:05:29;12.00;99.90
8539;DHT22;4307;53.868;11.680;2023-10-31T01:07:56;12.00;99.90
8539;DHT22;4307;53.868;11.680;2023-10-31T01:10:22;12.00;99.90
8539;DHT22;4307;53.868;11.680;2023-10-31T01:12:49;11.90;99.90
8539;DHT22;4307;53.868;11.680;2023-10-31T01:15:16;11.90;99.90
8539;DHT22;4307;53.868;11.680;2023-10-31T01:17:44;12.00;99.90
8539;DHT22;4307;53.868;11.680;2023-10-31T01:20:10;11.90;99.90
8539;DHT22;4307;53.868;11.680;2023-10-31T01:22:37;11.90;99.90
8539;DHT22;4307;53.868;11.680;2023-10-31T01:25:05;11.90;99.90
8539;DHT22;4307;53.868;11.680;2023-10-31T01:27:31;12.00;99.90
8539;DHT22;4307;53.868;11.680;2023-10-31T01:29:58;12.00;99.90
8539;DHT22;4307;53.868;11.680;2023-10-31T01:32:25;12.00;99.90
8539;DHT22;4307;53.868;11.680;2023-10-31T01:34:53;11.90;99.90
8539;DHT22;4307;53.868;11.680;2023-10-31T01:37:19;11.90;99.90
8539;DHT22;4307;53.868;11.680;2023-10-31T01:39:46;11.90;99.90
8539;DHT22;4307;53.868;11.680;2023-10-31T01:42:14;11.90;99.90
8539;DHT22;4307;53.868;11.680;2023-10-31T01:44:41;11.80;99.90
8539;DHT22;4307;53.868;11.680;2023-10-31T01:47:07;11.80;99.90
8539;DHT22;4307;53.868;11.680;2023-10-31T01:49:34;11.80;99.90
8539;DHT22;4307;53.868;11.680;2023-10-31T01:52:03;11.80;99.90
8539;DHT22;4307;53.868;11.680;2023-10-31T01:54:30;11.70;99.90
8539;DHT22;4307;53.868;11.680;2023-10-31T01:56:57;11.70;99.90
8539;DHT22;4307;53.868;11.680;2023-10-31T01:59:24;11.70;99.90
8539;DHT22;4307;53.868;11.680;2023-10-31T02:01:51;11.70;99.90
8539;DHT22;4307;53.868;11.680;2023-10-31T02:04:17;11.70;99.90
8539;DHT22;4307;53.868;11.680;2023-10-31T02:06:44;11.70;99.90
8539;DHT22;4307;53.868;11.680;2023-10-31T02:09:12;11.70;99.90
8539;DHT22;4307;53.868;11.680;2023-10-31T02:11:39;11.70;99.90
8539;DHT22;4307;53.868;11.680;2023-10-31T02:14:05;11.70;99.90
8539;DHT22;4307;53.868;11.680;2023-10-31T02:16:32;11.60;99.90
8539;DHT22;4307;53.868;11.680;2023-10-31T02:18:59;11.60;99.90
8539;DHT22;4307;53.868;11.680;2023-10-31T02:21:26;11.60;99.90
8539;DHT22;4307;53.868;11.680;2023-10-31T02:23:59;11.60;99.90
8539;DHT22;4307;53.868;11.680;2023-10-31T02:26:29;11.60;99.90
8539;DHT22;4307;53.868;11.680;2023-10-31T02:28:55;11.60;99.90
8539;DHT22;4307;53.868;11.680;2023-10-31T02:31:22;11.60;99.90
8539;DHT22;4307;53.868;11.680;2023-10-31T02:33:49;11.60;99.90
8539;DHT22;4307;53.868;11.680;2023-10-31T02:36:15;11.60;99.90
8539;DHT22;4307;53.868;11.680;2023-10-31T02:38:42;11.60;99.90
8539;DHT22;4307;53.868;11.680;2023-10-31T02:41:10;11.50;99.90
8539;DHT22;4307;53.868;11.680;2023-10-31T02:43:37;11.50;99.90
8539;DHT22;4307;53.868;11.680;2023-10-31T02:46:04;11.50;99.90
8539;DHT22;4307;53.868;11.680;2023-10-31T02:48:31;11.50;99.90
8539;DHT22;4307;53.868;11.680;2023-10-31T02:51:03;11.50;99.90
8539;DHT22;4307;53.868;11.680;2023-10-31T02:53:30;11.40;99.90
8539;DHT22;4307;53.868;11.680;2023-10-31T02:55:57;11.40;99.90
8539;DHT22;4307;53.868;11.680;2023-10-31T02:58:25;11.40;99.90
8539;DHT22;4307;53.868;11.680;2023-10-31T03:00:51;11.40;99.90
8539;DHT22;4307;53.868;11.680;2023-10-31T03:03:18;11.40;99.90
8539;DHT22;4307;53.868;11.680;2023-10-31T03:05:45;11.40;99.90
8539;DHT22;4307;53.868;11.680;2023-10-31T03:08:11;11.40;99.90
8539;DHT22;4307;53.868;11.680;2023-10-31T03:10:38;11.40;99.90
8539;DHT22;4307;53.868;11.680;2023-10-31T03:13:05;11.30;99.90
8539;DHT22;4307;53.868;11.680;2023-10-31T03:15:33;11.30;99.90
8539;DHT22;4307;53.868;11.680;2023-10-31T03:18:00;11.30;99.90
8539;DHT22;4307;53.868;11.680;2023-10-31T03:20:26;11.30;99.90
8539;DHT22;4307;53.868;11.680;2023-10-31T03:22:53;11.30;99.90
8539;DHT22;4307;53.868;11.680;2023-10-31T03:25:19;11.40;99.90
8539;DHT22;4307;53.868;11.680;2023-10-31T03:27:46;11.40;99.90
8539;DHT22;4307;53.868;11.680;2023-10-31T03:30:13;11.40;99.90
8539;DHT22;4307;53.868;11.680;2023-10-31T03:32:41;11.40;99.90
8539;DHT22;4307;53.868;11.680;2023-10-31T03:35:08;11.40;99.90
8539;DHT22;4307;53.868;11.680;2023-10-31T03:37:35;11.40;99.90
8539;DHT22;4307;53.868;11.680;2023-10-31T03:40:07;11.40;99.90
8539;DHT22;4307;53.868;11.680;2023-10-31T03:42:34;11.30;99.90
8539;DHT22;4307;53.868;11.680;2023-10-31T03:45:01;11.40;99.90
8539;DHT22;4307;53.868;11.680;2023-10-31T03:47:27;11.30;99.90
8539;DHT22;4307;53.868;11.680;2023-10-31T03:49:55;11.30;99.90
8539;DHT22;4307;53.868;11.680;2023-10-31T03:52:22;11.30;99.90
8539;DHT22;4307;53.868;11.680;2023-10-31T03:54:49;11.30;99.90
8539;DHT22;4307;53.868;11.680;2023-10-31T03:57:15;11.30;99.90
8539;DHT22;4307;53.868;11.680;2023-10-31T03:59:42;11.30;99.90
8539;DHT22;4307;53.868;11.680;2023-10-31T04:02:09;11.30;99.90
8539;DHT22;4307;53.868;11.680;2023-10-31T04:04:35;11.40;99.90
8539;DHT22;4307;53.868;11.680;2023-10-31T04:07:03;11.30;99.90
8539;DHT22;4307;53.868;11.680;2023-10-31T04:09:30;11.40;99.90
8539;DHT22;4307;53.868;11.680;2023-10-31T04:11:57;11.40;99.90
8539;DHT22;4307;53.868;11.680;2023-10-31T04:14:24;11.40;99.90
8539;DHT22;4307;53.868;11.680;2023-10-31T04:16:50;11.40;99.90
8539;DHT22;4307;53.868;11.680;2023-10-31T04:19:17;11.40;99.90
8539;DHT22;4307;53.868;11.680;2023-10-31T04:21:43;11.40;99.90
8539;DHT22;4307;53.868;11.680;2023-10-31T04:24:11;11.40;99.90
8539;DHT22;4307;53.868;11.680;2023-10-31T04:26:39;11.40;99.90
8539;DHT22;4307;53.868;11.680;2023-10-31T04:29:06;11.40;99.90
8539;DHT22;4307;53.868;11.680;2023-10-31T04:31:33;11.40;99.90
8539;DHT22;4307;53.868;11.680;2023-10-31T04:33:59;11.40;99.90
8539;DHT22;4307;53.868;11.680;2023-10-31T04:36:26;11.40;99.90
8539;DHT22;4307;53.868;11.680;2023-10-31T04:38:53;11.40;99.90
8539;DHT22;4307;53.868;11.680;2023-10-31T04:41:21;11.40;99.90
8539;DHT22;4307;53.868;11.680;2023-10-31T04:43:47;11.40;99.90
8539;DHT22;4307;53.868;11.680;2023-10-31T04:46:14;11.40;99.90
8539;DHT22;4307;53.868;11.680;2023-10-31T04:48:41;11.40;99.90
8539;DHT22;4307;53.868;11.680;2023-10-31T04:51:08;11.50;99.90
8539;DHT22;4307;53.868;11.680;2023-10-31T04:53:35;11.50;99.90
8539;DHT22;4307;53.868;11.680;2023-10-31T04:56:02;11.50;99.90
8539;DHT22;4307;53.868;11.680;2023-10-31T04:58:30;11.50;99.90
8539;DHT22;4307;53.868;11.680;2023-10-31T05:00:56;11.50;99.90
8539;DHT22;4307;53.868;11.680;2023-10-31T05:03:23;11.50;99.90
8539;DHT22;4307;53.868;11.680;2023-10-31T05:05:50;11.50;99.90
8539;DHT22;4307;53.868;11.680;2023-10-31T05:08:16;11.60;99.90
8539;DHT22;4307;53.868;11.680;2023-10-31T05:10:43;11.60;99.90
8539;DHT22;4307;53.868;11.680;2023-10-31T05:13:09;11.60;99.90
8539;DHT22;4307;53.868;11.680;2023-10-31T05:15:37;11.60;99.90
8539;DHT22;4307;53.868;11.680;2023-10-31T05:18:04;11.60;99.90
8539;DHT22;4307;53.868;11.680;2023-10-31T05:20:31;11.60;99.90
8539;DHT22;4307;53.868;11.680;2023-10-31T05:22:58;11.70;99.90
8539;DHT22;4307;53.868;11.680;2023-10-31T05:25:24;11.70;99.90
8539;DHT22;4307;53.868;11.680;2023-10-31T05:27:51;11.70;99.90
8539;DHT22;4307;53.868;11.680;2023-10-31T05:30:18;11.70;99.90
8539;DHT22;4307;53.868;11.680;2023-10-31T05:32:46;11.70;99.90
8539;DHT22;4307;53.868;11.680;2023-10-31T05:35:13;11.70;99.90
8539;DHT22;4307;53.868;11.680;2023-10-31T05:37:40;11.70;99.90
8539;DHT22;4307;53.868;11.680;2023-10-31T05:40:08;11.70;99.90
8539;DHT22;4307;53.868;11.680;2023-10-31T05:42:34;11.70;99.90
8539;DHT22;4307;53.868;11.680;2023-10-31T05:45:01;11.70;99.90
8539;DHT22;4307;53.868;11.680;2023-10-31T05:47:28;11.80;99.90
8539;DHT22;4307;53.868;11.680;2023-10-31T05:49:56;11.80;99.90
8539;DHT22;4307;53.868;11.680;2023-10-31T05:52:23;11.80;99.90
8539;DHT22;4307;53.868;11.680;2023-10-31T05:54:49;11.80;99.90
8539;DHT22;4307;53.868;11.680;2023-10-31T05:57:16;11.90;99.90
8539;DHT22;4307;53.868;11.680;2023-10-31T05:59:43;11.90;99.90
8539;DHT22;4307;53.868;11.680;2023-10-31T06:02:09;11.90;99.90
8539;DHT22;4307;53.868;11.680;2023-10-31T06:04:36;12.00;99.90
8539;DHT22;4307;53.868;11.680;2023-10-31T06:07:04;12.00;99.90
8539;DHT22;4307;53.868;11.680;2023-10-31T06:09:31;12.00;99.90
8539;DHT22;4307;53.868;11.680;2023-10-31T06:11:58;12.00;99.90
8539;DHT22;4307;53.868;11.680;2023-10-31T06:14:25;12.00;99.90
8539;DHT22;4307;53.868;11.680;2023-10-31T06:16:52;12.00;99.90
8539;DHT22;4307;53.868;11.680;2023-10-31T06:19:20;12.10;99.90
8539;DHT22;4307;53.868;11.680;2023-10-31T06:21:47;12.10;99.90
8539;DHT22;4307;53.868;11.680;2023-10-31T06:24:15;12.10;99.90
8539;DHT22;4307;53.868;11.680;2023-10-31T06:26:41;12.10;99.90
8539;DHT22;4307;53.868;11.680;2023-10-31T06:29:08;12.10;99.90
8539;DHT22;4307;53.868;11.680;2023-10-31T06:31:35;12.10;99.90
8539;DHT22;4307;53.868;11.680;2023-10-31T06:34:01;12.20;99.90
8539;DHT22;4307;53.868;11.680;2023-10-31T06:36:28;12.20;99.90
8539;DHT22;4307;53.868;11.680;2023-10-31T06:38:54;12.20;99.90
8539;DHT22;4307;53.868;11.680;2023-10-31T06:41:23;12.20;99.90
8539;DHT22;4307;53.868;11.680;2023-10-31T06:43:49;12.20;99.90
8539;DHT22;4307;53.868;11.680;2023-10-31T06:46:16;12.20;99.90
8539;DHT22;4307;53.868;11.680;2023-10-31T06:48:43;12.20;99.90
8539;DHT22;4307;53.868;11.680;2023-10-31T06:51:10;12.30;99.90
8539;DHT22;4307;53.868;11.680;2023-10-31T06:53:36;12.30;99.90
8539;DHT22;4307;53.868;11.680;2023-10-31T06:56:04;12.30;99.90
8539;DHT22;4307;53.868;11.680;2023-10-31T06:58:32;12.30;99.90
8539;DHT22;4307;53.868;11.680;2023-10-31T07:00:58;12.30;99.90
8539;DHT22;4307;53.868;11.680;2023-10-31T07:03:25;12.30;99.90
8539;DHT22;4307;53.868;11.680;2023-10-31T07:05:52;12.30;99.90
8539;DHT22;4307;53.868;11.680;2023-10-31T07:08:21;12.40;99.90
8539;DHT22;4307;53.868;11.680;2023-10-31T07:10:48;12.40;99.90
8539;DHT22;4307;53.868;11.680;2023-10-31T07:13:14;12.40;99.90
8539;DHT22;4307;53.868;11.680;2023-10-31T07:15:43;12.40;99.90
8539;DHT22;4307;53.868;11.680;2023-10-31T07:18:10;12.40;99.90
8539;DHT22;4307;53.868;11.680;2023-10-31T07:20:36;12.40;99.90
8539;DHT22;4307;53.868;11.680;2023-10-31T07:23:03;12.40;99.90
8539;DHT22;4307;53.868;11.680;2023-10-31T07:25:30;12.50;99.90
8539;DHT22;4307;53.868;11.680;2023-10-31T07:27:56;12.50;99.90
8539;DHT22;4307;53.868;11.680;2023-10-31T07:30:23;12.50;99.90
8539;DHT22;4307;53.868;11.680;2023-10-31T07:32:51;12.50;99.90
8539;DHT22;4307;53.868;11.680;2023-10-31T07:35:18;12.60;99.90
8539;DHT22;4307;53.868;11.680;2023-10-31T07:37:45;12.60;99.90
8539;DHT22;4307;53.868;11.680;2023-10-31T07:40:12;12.60;99.90
8539;DHT22;4307;53.868;11.680;2023-10-31T07:42:39;12.70;99.90
8539;DHT22;4307;53.868;11.680;2023-10-31T07:45:06;12.60;99.90
8539;DHT22;4307;53.868;11.680;2023-10-31T07:47:33;12.70;99.90
8539;DHT22;4307;53.868;11.680;2023-10-31T07:50:01;12.70;99.90
8539;DHT22;4307;53.868;11.680;2023-10-31T07:52:28;12.70;99.90
8539;DHT22;4307;53.868;11.680;2023-10-31T07:54:54;12.70;99.90
8539;DHT22;4307;53.868;11.680;2023-10-31T07:57:21;12.70;99.90
8539;DHT22;4307;53.868;11.680;2023-10-31T07:59:47;12.80;99.90
8539;DHT22;4307;53.868;11.680;2023-10-31T08:02:14;12.80;99.90
8539;DHT22;4307;53.868;11.680;2023-10-31T08:04:41;12.80;99.90
8539;DHT22;4307;53.868;11.680;2023-10-31T08:07:09;12.80;99.90
8539;DHT22;4307;53.868;11.680;2023-10-31T08:09:35;12.80;99.90
8539;DHT22;4307;53.868;11.680;2023-10-31T08:12:02;12.80;99.90
8539;DHT22;4307;53.868;11.680;2023-10-31T08:14:29;12.80;99.90
8539;DHT22;4307;53.868;11.680;2023-10-31T08:16:56;12.80;99.90
8539;DHT22;4307;53.868;11.680;2023-10-31T08:19:23;12.80;99.90
8539;DHT22;4307;53.868;11.680;2023-10-31T08:21:49;12.80;99.90
8539;DHT22;4307;53.868;11.680;2023-10-31T08:24:17;12.80;99.90
8539;DHT22;4307;53.868;11.680;2023-10-31T08:26:44;12.80;99.90
8539;DHT22;4307;53.868;11.680;2023-10-31T08:29:11;12.80;99.90
8539;DHT22;4307;53.868;11.680;2023-10-31T08:31:37;12.80;99.90
8539;DHT22;4307;53.868;11.680;2023-10-31T08:34:04;12.80;99.90
8539;DHT22;4307;53.868;11.680;2023-10-31T08:36:30;12.80;99.90
8539;DHT22;4307;53.868;11.680;2023-10-31T08:38:57;12.80;99.90
8539;DHT22;4307;53.868;11.680;2023-10-31T08:41:25;12.80;99.90
8539;DHT22;4307;53.868;11.680;2023-10-31T08:43:52;12.80;99.90
8539;DHT22;4307;53.868;11.680;2023-10-31T08:46:19;12.80;99.90
8539;DHT22;4307;53.868;11.680;2023-10-31T08:48:47;12.80;99.90
8539;DHT22;4307;53.868;11.680;2023-10-31T08:51:14;12.80;99.90
8539;DHT22;4307;53.868;11.680;2023-10-31T08:53:40;12.80;99.90
8539;DHT22;4307;53.868;11.680;2023-10-31T08:56:07;12.80;99.90
8539;DHT22;4307;53.868;11.680;2023-10-31T08:58:35;12.80;99.90
8539;DHT22;4307;53.868;11.680;2023-10-31T09:01:02;12.80;99.90
8539;DHT22;4307;53.868;11.680;2023-10-31T09:03:28;12.70;99.90
8539;DHT22;4307;53.868;11.680;2023-10-31T09:05:55;12.70;99.90
8539;DHT22;4307;53.868;11.680;2023-10-31T09:08:22;12.80;99.90
8539;DHT22;4307;53.868;11.680;2023-10-31T09:10:48;12.70;99.90
8539;DHT22;4307;53.868;11.680;2023-10-31T09:13:15;12.70;99.90
8539;DHT22;4307;53.868;11.680;2023-10-31T09:15:43;12.60;99.90
8539;DHT22;4307;53.868;11.680;2023-10-31T09:18:11;12.60;99.90
8539;DHT22;4307;53.868;11.680;2023-10-31T09:20:38;12.50;99.90
8539;DHT22;4307;53.868;11.680;2023-10-31T09:23:05;12.50;99.90
8539;DHT22;4307;53.868;11.680;2023-10-31T09:25:31;12.50;99.90
8539;DHT22;4307;53.868;11.680;2023-10-31T09:27:58;12.40;99.90
8539;DHT22;4307;53.868;11.680;2023-10-31T09:30:25;12.50;99.90
8539;DHT22;4307;53.868;11.680;2023-10-31T09:32:53;12.50;99.90
8539;DHT22;4307;53.868;11.680;2023-10-31T09:35:20;12.50;99.90
8539;DHT22;4307;53.868;11.680;2023-10-31T09:37:46;12.50;99.90
8539;DHT22;4307;53.868;11.680;2023-10-31T09:40:15;12.50;99.90
8539;DHT22;4307;53.868;11.680;2023-10-31T09:42:41;12.50;99.90
8539;DHT22;4307;53.868;11.680;2023-10-31T09:45:09;12.50;99.90
8539;DHT22;4307;53.868;11.680;2023-10-31T09:47:35;12.50;99.90
8539;DHT22;4307;53.868;11.680;2023-10-31T09:50:04;12.50;99.90
8539;DHT22;4307;53.868;11.680;2023-10-31T09:52:31;12.50;99.90
8539;DHT22;4307;53.868;11.680;2023-10-31T09:54:59;12.50;99.90
8539;DHT22;4307;53.868;11.680;2023-10-31T09:57:25;12.50;99.90
8539;DHT22;4307;53.868;11.680;2023-10-31T09:59:52;12.50;99.90
8539;DHT22;4307;53.868;11.680;2023-10-31T10:02:19;12.50;99.90
8539;DHT22;4307;53.868;11.680;2023-10-31T10:04:46;12.50;99.90
8539;DHT22;4307;53.868;11.680;2023-10-31T10:07:16;12.50;99.90
8539;DHT22;4307;53.868;11.680;2023-10-31T10:09:43;12.50;99.90
8539;DHT22;4307;53.868;11.680;2023-10-31T10:12:11;12.50;99.90
8539;DHT22;4307;53.868;11.680;2023-10-31T10:14:38;12.50;99.90
8539;DHT22;4307;53.868;11.680;2023-10-31T10:17:14;12.50;99.90
8539;DHT22;4307;53.868;11.680;2023-10-31T10:19:41;12.50;99.90
8539;DHT22;4307;53.868;11.680;2023-10-31T10:22:07;12.50;99.90
8539;DHT22;4307;53.868;11.680;2023-10-31T10:24:39;12.50;99.90
8539;DHT22;4307;53.868;11.680;2023-10-31T10:27:07;12.50;99.90
8539;DHT22;4307;53.868;11.680;2023-10-31T10:29:34;12.50;99.90
8539;DHT22;4307;53.868;11.680;2023-10-31T10:32:01;12.50;99.90
8539;DHT22;4307;53.868;11.680;2023-10-31T10:34:27;12.40;99.90
8539;DHT22;4307;53.868;11.680;2023-10-31T10:36:55;12.50;99.90
8539;DHT22;4307;53.868;11.680;2023-10-31T10:39:23;12.50;99.90
8539;DHT22;4307;53.868;11.680;2023-10-31T10:41:54;12.50;99.90
8539;DHT22;4307;53.868;11.680;2023-10-31T10:44:30;12.50;99.90
8539;DHT22;4307;53.868;11.680;2023-10-31T10:46:58;12.40;99.90
8539;DHT22;4307;53.868;11.680;2023-10-31T10:49:27;12.40;99.90
8539;DHT22;4307;53.868;11.680;2023-10-31T10:51:58;12.30;99.90
8539;DHT22;4307;53.868;11.680;2023-10-31T10:54:33;12.30;99.90
8539;DHT22;4307;53.868;11.680;2023-10-31T10:57:10;12.20;99.90
8539;DHT22;4307;53.868;11.680;2023-10-31T10:59:41;12.20;99.90
8539;DHT22;4307;53.868;11.680;2023-10-31T11:02:09;12.10;99.90
8539;DHT22;4307;53.868;11.680;2023-10-31T11:04:37;12.10;99.90
8539;DHT22;4307;53.868;11.680;2023-10-31T11:07:05;12.00;99.90
8539;DHT22;4307;53.868;11.680;2023-10-31T11:09:33;12.00;99.90
8539;DHT22;4307;53.868;11.680;2023-10-31T11:12:00;12.10;99.90
8539;DHT22;4307;53.868;11.680;2023-10-31T11:14:30;12.10;99.90
8539;DHT22;4307;53.868;11.680;2023-10-31T11:17:01;12.10;99.90
8539;DHT22;4307;53.868;11.680;2023-10-31T11:19:30;12.10;99.90
8539;DHT22;4307;53.868;11.680;2023-10-31T11:21:58;12.20;99.90
8539;DHT22;4307;53.868;11.680;2023-10-31T11:24:26;12.20;99.90
8539;DHT22;4307;53.868;11.680;2023-10-31T11:26:58;12.20;99.90
8539;DHT22;4307;53.868;11.680;2023-10-31T11:29:25;12.20;99.90
8539;DHT22;4307;53.868;11.680;2023-10-31T11:31:54;12.30;99.90
8539;DHT22;4307;53.868;11.680;2023-10-31T11:34:20;12.20;99.90
8539;DHT22;4307;53.868;11.680;2023-10-31T11:36:47;12.30;99.90
8539;DHT22;4307;53.868;11.680;2023-10-31T11:39:15;12.40;99.90
8539;DHT22;4307;53.868;11.680;2023-10-31T11:41:48;12.40;99.90
8539;DHT22;4307;53.868;11.680;2023-10-31T11:44:15;12.40;99.90
8539;DHT22;4307;53.868;11.680;2023-10-31T11:46:42;12.40;99.90
8539;DHT22;4307;53.868;11.680;2023-10-31T11:49:14;12.40;99.90
8539;DHT22;4307;53.868;11.680;2023-10-31T11:51:43;12.40;99.90
8539;DHT22;4307;53.868;11.680;2023-10-31T11:54:12;12.30;99.90
8539;DHT22;4307;53.868;11.680;2023-10-31T11:56:39;12.30;99.90
8539;DHT22;4307;53.868;11.680;2023-10-31T11:59:06;12.30;99.90
8539;DHT22;4307;53.868;11.680;2023-10-31T12:01:33;12.20;99.90
8539;DHT22;4307;53.868;11.680;2023-10-31T12:04:00;12.20;99.90
8539;DHT22;4307;53.868;11.680;2023-10-31T12:06:30;12.20;99.90
8539;DHT22;4307;53.868;11.680;2023-10-31T12:09:00;12.20;99.90
8539;DHT22;4307;53.868;11.680;2023-10-31T12:11:27;12.20;99.90
8539;DHT22;4307;53.868;11.680;2023-10-31T12:13:56;12.20;99.90
8539;DHT22;4307;53.868;11.680;2023-10-31T12:16:24;12.20;99.90
8539;DHT22;4307;53.868;11.680;2023-10-31T12:18:55;12.00;99.90
8539;DHT22;4307;53.868;11.680;2023-10-31T12:21:38;11.80;99.90
8539;DHT22;4307;53.868;11.680;2023-10-31T12:24:07;11.60;99.90
8539;DHT22;4307;53.868;11.680;2023-10-31T12:26:33;11.40;99.90
8539;DHT22;4307;53.868;11.680;2023-10-31T12:29:11;11.30;99.90
8539;DHT22;4307;53.868;11.680;2023-10-31T12:31:43;11.10;99.90
8539;DHT22;4307;53.868;11.680;2023-10-31T12:34:11;10.90;99.90
8539;DHT22;4307;53.868;11.680;2023-10-31T12:36:39;10.80;99.90
8539;DHT22;4307;53.868;11.680;2023-10-31T12:39:07;10.70;99.90
8539;DHT22;4307;53.868;11.680;2023-10-31T12:41:37;10.60;99.90
8539;DHT22;4307;53.868;11.680;2023-10-31T12:44:06;10.50;99.90
8539;DHT22;4307;53.868;11.680;2023-10-31T12:46:33;10.50;99.90
8539;DHT22;4307;53.868;11.680;2023-10-31T12:49:01;10.50;99.90
8539;DHT22;4307;53.868;11.680;2023-10-31T12:51:27;10.50;99.90
8539;DHT22;4307;53.868;11.680;2023-10-31T12:53:55;10.40;99.90
8539;DHT22;4307;53.868;11.680;2023-10-31T12:56:36;10.30;99.90
8539;DHT22;4307;53.868;11.680;2023-10-31T12:59:04;10.30;99.90
8539;DHT22;4307;53.868;11.680;2023-10-31T13:01:33;10.30;99.90
8539;DHT22;4307;53.868;11.680;2023-10-31T13:04:00;10.20;99.90
8539;DHT22;4307;53.868;11.680;2023-10-31T13:06:27;10.20;99.90
8539;DHT22;4307;53.868;11.680;2023-10-31T13:08:56;10.20;99.90
8539;DHT22;4307;53.868;11.680;2023-10-31T13:11:23;10.30;99.90
8539;DHT22;4307;53.868;11.680;2023-10-31T13:13:51;10.20;99.90
8539;DHT22;4307;53.868;11.680;2023-10-31T13:16:19;10.30;99.90
8539;DHT22;4307;53.868;11.680;2023-10-31T13:18:45;10.50;99.90
8539;DHT22;4307;53.868;11.680;2023-10-31T13:21:12;10.60;99.90
8539;DHT22;4307;53.868;11.680;2023-10-31T13:23:40;10.70;99.90
8539;DHT22;4307;53.868;11.680;2023-10-31T13:26:10;10.80;99.90
8539;DHT22;4307;53.868;11.680;2023-10-31T13:28:37;10.80;99.90
8539;DHT22;4307;53.868;11.680;2023-10-31T13:31:05;10.80;99.90
8539;DHT22;4307;53.868;11.680;2023-10-31T13:33:32;10.80;99.90
8539;DHT22;4307;53.868;11.680;2023-10-31T13:35:59;10.80;99.90
8539;DHT22;4307;53.868;11.680;2023-10-31T13:38:26;10.70;99.90
8539;DHT22;4307;53.868;11.680;2023-10-31T13:40:52;10.70;99.90
8539;DHT22;4307;53.868;11.680;2023-10-31T13:43:20;10.60;99.90
8539;DHT22;4307;53.868;11.680;2023-10-31T13:45:47;10.50;99.90
8539;DHT22;4307;53.868;11.680;2023-10-31T13:48:14;10.50;99.90
8539;DHT22;4307;53.868;11.680;2023-10-31T13:50:40;10.50;99.90
8539;DHT22;4307;53.868;11.680;2023-10-31T13:53:07;10.50;99.90
8539;DHT22;4307;53.868;11.680;2023-10-31T13:55:34;10.40;99.90
8539;DHT22;4307;53.868;11.680;2023-10-31T13:58:01;10.40;99.90
8539;DHT22;4307;53.868;11.680;2023-10-31T14:00:29;10.40;99.90
8539;DHT22;4307;53.868;11.680;2023-10-31T14:02:56;10.40;99.90
8539;DHT22;4307;53.868;11.680;2023-10-31T14:05:22;10.40;99.90
8539;DHT22;4307;53.868;11.680;2023-10-31T14:07:50;10.40;99.90
8539;DHT22;4307;53.868;11.680;2023-10-31T14:10:17;10.40;99.90
8539;DHT22;4307;53.868;11.680;2023-10-31T14:12:45;10.40;99.90
8539;DHT22;4307;53.868;11.680;2023-10-31T14:15:12;10.40;99.90
8539;DHT22;4307;53.868;11.680;2023-10-31T14:17:40;10.40;99.90
8539;DHT22;4307;53.868;11.680;2023-10-31T14:20:07;10.30;99.90
8539;DHT22;4307;53.868;11.680;2023-10-31T14:22:34;10.30;99.90
8539;DHT22;4307;53.868;11.680;2023-10-31T14:25:01;10.30;99.90
8539;DHT22;4307;53.868;11.680;2023-10-31T14:27:29;10.30;99.90
8539;DHT22;4307;53.868;11.680;2023-10-31T14:29:56;10.30;99.90
8539;DHT22;4307;53.868;11.680;2023-10-31T14:32:23;10.30;99.90
8539;DHT22;4307;53.868;11.680;2023-10-31T14:34:51;10.30;99.90
8539;DHT22;4307;53.868;11.680;2023-10-31T14:37:17;10.20;99.90
8539;DHT22;4307;53.868;11.680;2023-10-31T14:39:44;10.20;99.90
8539;DHT22;4307;53.868;11.680;2023-10-31T14:42:11;10.20;99.90
8539;DHT22;4307;53.868;11.680;2023-10-31T14:44:37;10.20;99.90
8539;DHT22;4307;53.868;11.680;2023-10-31T14:47:04;10.20;99.90
8539;DHT22;4307;53.868;11.680;2023-10-31T14:49:31;10.10;99.90
8539;DHT22;4307;53.868;11.680;2023-10-31T14:51:59;10.10;99.90
8539;DHT22;4307;53.868;11.680;2023-10-31T14:54:26;10.00;99.90
8539;DHT22;4307;53.868;11.680;2023-10-31T14:56:53;10.00;99.90
8539;DHT22;4307;53.868;11.680;2023-10-31T14:59:20;10.00;99.90
8539;DHT22;4307;53.868;11.680;2023-10-31T15:01:46;10.00;99.90
8539;DHT22;4307;53.868;11.680;2023-10-31T15:04:13;9.90;99.90
8539;DHT22;4307;53.868;11.680;2023-10-31T15:06:39;10.00;99.90
8539;DHT22;4307;53.868;11.680;2023-10-31T15:09:07;9.90;99.90
8539;DHT22;4307;53.868;11.680;2023-10-31T15:11:34;9.90;99.90
8539;DHT22;4307;53.868;11.680;2023-10-31T15:14:01;9.90;99.90
8539;DHT22;4307;53.868;11.680;2023-10-31T15:16:28;9.90;99.90
8539;DHT22;4307;53.868;11.680;2023-10-31T15:18:55;9.90;99.90
8539;DHT22;4307;53.868;11.680;2023-10-31T15:21:21;9.90;99.90
8539;DHT22;4307;53.868;11.680;2023-10-31T15:23:48;9.90;99.90
8539;DHT22;4307;53.868;11.680;2023-10-31T15:26:16;9.90;99.90
8539;DHT22;4307;53.868;11.680;2023-10-31T15:28:43;9.80;99.90
8539;DHT22;4307;53.868;11.680;2023-10-31T15:31:10;9.80;99.90
8539;DHT22;4307;53.868;11.680;2023-10-31T15:33:36;9.80;99.90
8539;DHT22;4307;53.868;11.680;2023-10-31T15:36:09;9.70;99.90
8539;DHT22;4307;53.868;11.680;2023-10-31T15:38:36;9.70;99.90
8539;DHT22;4307;53.868;11.680;2023-10-31T15:41:03;9.70;99.90
8539;DHT22;4307;53.868;11.680;2023-10-31T15:43:31;9.70;99.90
8539;DHT22;4307;53.868;11.680;2023-10-31T15:45:57;9.70;99.90
8539;DHT22;4307;53.868;11.680;2023-10-31T15:48:24;9.70;99.90